createdAt,value
2023-05-10T00:00:45.680Z,241.02
2023-05-10T00:01:45.719Z,241.34
2023-05-10T00:02:45.761Z,240.60
2023-05-10T00:03:45.774Z,240.92
2023-05-10T00:04:45.703Z,240.20
2023-05-10T00:05:45.695Z,242.12
2023-05-10T00:06:45.681Z,241.57
2023-05-10T00:07:45.896Z,240.90
2023-05-10T00:08:45.738Z,240.92
2023-05-10T00:09:45.720Z,241.22
2023-05-10T00:10:45.728Z,240.78
2023-05-10T00:11:45.727Z,240.30
2023-05-10T00:12:45.741Z,239.31
2023-05-10T00:13:45.725Z,238.17
2023-05-10T00:14:45.725Z,239.47
2023-05-10T00:15:45.721Z,239.75
2023-05-10T00:16:45.734Z,241.35
2023-05-10T00:17:45.791Z,241.79
2023-05-10T00:18:45.738Z,242.32
2023-05-10T00:19:45.719Z,240.66
2023-05-10T00:20:45.717Z,239.99
2023-05-10T00:21:45.735Z,241.32
2023-05-10T00:22:45.714Z,240.84
2023-05-10T00:23:45.762Z,238.69
2023-05-10T00:24:45.722Z,238.68
2023-05-10T00:25:45.750Z,241.85
2023-05-10T00:26:45.754Z,239.79
2023-05-10T00:27:45.746Z,239.39
2023-05-10T00:28:45.775Z,239.53
2023-05-10T00:29:45.756Z,239.96
2023-05-10T00:30:45.797Z,240.10
2023-05-10T00:31:45.846Z,241.28
2023-05-10T00:32:45.857Z,240.58
2023-05-10T00:33:45.817Z,240.22
2023-05-10T00:34:45.785Z,239.54
2023-05-10T00:35:45.800Z,240.17
2023-05-10T00:36:45.802Z,239.79
2023-05-10T00:37:45.805Z,241.28
2023-05-10T00:38:45.844Z,240.99
2023-05-10T00:39:45.819Z,241.54
2023-05-10T00:40:45.823Z,239.33
2023-05-10T00:41:45.842Z,239.19
2023-05-10T00:42:45.831Z,239.05
2023-05-10T00:43:45.855Z,239.03
2023-05-10T00:44:45.844Z,238.31
2023-05-10T00:45:45.887Z,240.59
2023-05-10T00:46:45.844Z,241.95
2023-05-10T00:47:45.868Z,242.37
2023-05-10T00:48:45.885Z,242.30
2023-05-10T00:49:45.869Z,242.09
2023-05-10T00:50:45.904Z,240.39
2023-05-10T00:51:45.888Z,237.96
2023-05-10T00:52:45.899Z,239.20
2023-05-10T00:53:45.900Z,240.09
2023-05-10T00:54:45.913Z,239.46
2023-05-10T00:55:45.900Z,240.19
2023-05-10T00:56:45.926Z,239.48
2023-05-10T00:57:45.918Z,240.22
2023-05-10T00:58:45.933Z,238.23
2023-05-10T00:59:45.969Z,236.97
2023-05-10T01:00:45.941Z,239.16
2023-05-10T01:01:45.989Z,239.75
2023-05-10T01:02:46.020Z,238.42
2023-05-10T01:03:45.963Z,238.72
2023-05-10T01:04:46.014Z,237.75
2023-05-10T01:05:45.979Z,235.79
2023-05-10T01:06:45.997Z,236.71
2023-05-10T01:07:45.998Z,239.50
2023-05-10T01:08:45.999Z,239.42
2023-05-10T01:09:46.007Z,239.74
2023-05-10T01:10:46.025Z,238.71
2023-05-10T01:11:46.009Z,239.25
2023-05-10T01:12:46.121Z,237.54
2023-05-10T01:13:46.063Z,238.37
2023-05-10T01:14:46.059Z,240.23
2023-05-10T01:15:46.085Z,238.47
2023-05-10T01:16:46.063Z,238.08
2023-05-10T01:17:46.118Z,239.81
2023-05-10T01:18:46.088Z,240.46
2023-05-10T01:19:46.089Z,238.63
2023-05-10T01:20:46.100Z,239.07
2023-05-10T01:21:46.113Z,238.26
2023-05-10T01:22:46.117Z,237.83
2023-05-10T01:23:46.116Z,237.93
2023-05-10T01:24:46.142Z,236.48
2023-05-10T01:25:46.168Z,238.96
2023-05-10T01:26:46.141Z,238.19
2023-05-10T01:27:46.160Z,240.73
2023-05-10T01:28:46.194Z,240.92
2023-05-10T01:29:46.188Z,241.51
2023-05-10T01:30:46.213Z,241.02
2023-05-10T01:31:46.222Z,239.79
2023-05-10T01:32:46.284Z,241.13
2023-05-10T01:33:46.262Z,240.17
2023-05-10T01:34:46.254Z,239.75
2023-05-10T01:35:46.257Z,241.16
2023-05-10T01:36:46.265Z,240.13
2023-05-10T01:37:46.348Z,238.86
2023-05-10T01:38:46.301Z,240.15
2023-05-10T01:39:46.316Z,236.29
2023-05-10T01:40:46.316Z,237.32
2023-05-10T01:41:46.313Z,237.48
2023-05-10T01:42:46.326Z,238.30
2023-05-10T01:43:46.317Z,237.06
2023-05-10T01:44:46.321Z,235.13
2023-05-10T01:45:46.361Z,235.19
2023-05-10T01:46:46.402Z,235.55
2023-05-10T01:47:46.402Z,236.92
2023-05-10T01:48:46.388Z,234.50
2023-05-10T01:49:46.397Z,233.63
2023-05-10T01:50:46.411Z,234.30
2023-05-10T01:51:46.426Z,235.74
2023-05-10T01:52:46.482Z,235.51
2023-05-10T01:53:46.447Z,234.51
2023-05-10T01:54:46.473Z,231.74
2023-05-10T01:55:46.532Z,231.98
2023-05-10T01:56:46.532Z,232.87
2023-05-10T01:57:46.558Z,235.31
2023-05-10T01:58:46.575Z,233.89
2023-05-10T01:59:46.578Z,231.17
2023-05-10T02:00:46.590Z,229.45
2023-05-10T02:01:46.596Z,231.12
2023-05-10T02:02:46.634Z,233.27
2023-05-10T02:03:46.685Z,231.26
2023-05-10T02:04:46.612Z,231.83
2023-05-10T02:05:46.665Z,231.29
2023-05-10T02:06:46.671Z,231.69
2023-05-10T02:07:46.668Z,231.72
2023-05-10T02:08:46.685Z,231.01
2023-05-10T02:09:46.697Z,230.71
2023-05-10T02:10:46.723Z,229.94
2023-05-10T02:11:46.726Z,229.33
2023-05-10T02:12:46.751Z,231.15
2023-05-10T02:13:46.751Z,231.29
2023-05-10T02:14:46.812Z,231.70
2023-05-10T02:15:46.813Z,230.93
2023-05-10T02:16:46.847Z,229.98
2023-05-10T02:17:46.878Z,230.65
2023-05-10T02:18:46.877Z,232.48
2023-05-10T02:19:46.920Z,234.46
2023-05-10T02:20:46.939Z,232.77
2023-05-10T02:21:46.933Z,231.40
2023-05-10T02:22:46.966Z,230.73
2023-05-10T02:23:46.983Z,230.18
2023-05-10T02:24:46.993Z,228.04
2023-05-10T02:25:47.105Z,228.86
2023-05-10T02:26:47.027Z,229.27
2023-05-10T02:27:47.038Z,226.25
2023-05-10T02:28:47.061Z,226.40
2023-05-10T02:29:47.103Z,226.41
2023-05-10T02:30:47.117Z,227.39
2023-05-10T02:31:47.167Z,228.49
2023-05-10T02:32:47.183Z,231.21
2023-05-10T02:33:47.178Z,228.93
2023-05-10T02:34:47.165Z,226.81
2023-05-10T02:35:47.196Z,225.43
2023-05-10T02:36:47.310Z,224.98
2023-05-10T02:37:47.238Z,225.42
2023-05-10T02:38:47.273Z,225.22
2023-05-10T02:39:47.277Z,225.27
2023-05-10T02:40:47.282Z,225.05
2023-05-10T02:41:47.314Z,226.18
2023-05-10T02:42:47.332Z,225.46
2023-05-10T02:43:47.331Z,224.27
2023-05-10T02:44:47.356Z,225.71
2023-05-10T02:45:47.397Z,226.49
2023-05-10T02:46:47.394Z,225.94
2023-05-10T02:47:47.453Z,225.84
2023-05-10T02:48:47.420Z,224.24
2023-05-10T02:49:47.483Z,224.04
2023-05-10T02:50:47.499Z,223.54
2023-05-10T02:51:47.506Z,224.30
2023-05-10T02:52:47.526Z,223.86
2023-05-10T02:53:47.543Z,221.65
2023-05-10T02:54:47.597Z,221.90
2023-05-10T02:55:47.610Z,219.92
2023-05-10T02:56:47.622Z,221.50
2023-05-10T02:57:47.653Z,222.72
2023-05-10T02:58:47.680Z,222.23
2023-05-10T02:59:47.740Z,222.91
2023-05-10T03:00:47.729Z,220.20
2023-05-10T03:01:47.822Z,220.44
2023-05-10T03:02:47.815Z,220.47
2023-05-10T03:03:47.791Z,219.71
2023-05-10T03:04:47.840Z,219.98
2023-05-10T03:05:47.857Z,219.90
2023-05-10T03:06:47.850Z,220.03
2023-05-10T03:07:47.879Z,219.25
2023-05-10T03:08:47.896Z,217.66
2023-05-10T03:09:47.910Z,220.76
2023-05-10T03:10:47.930Z,220.27
2023-05-10T03:11:47.972Z,222.62
2023-05-10T03:12:48.035Z,222.29
2023-05-10T03:13:48.002Z,220.90
2023-05-10T03:14:47.998Z,219.67
2023-05-10T03:15:48.079Z,219.98
2023-05-10T03:16:48.182Z,221.27
2023-05-10T03:17:48.092Z,223.90
2023-05-10T03:18:48.084Z,222.05
2023-05-10T03:19:48.097Z,220.23
2023-05-10T03:20:48.121Z,221.24
2023-05-10T03:21:48.206Z,221.25
2023-05-10T03:22:48.154Z,219.22
2023-05-10T03:23:48.178Z,219.83
2023-05-10T03:24:48.215Z,219.68
2023-05-10T03:25:48.229Z,220.91
2023-05-10T03:26:48.250Z,222.13
2023-05-10T03:27:48.252Z,220.20
2023-05-10T03:28:48.274Z,219.31
2023-05-10T03:29:48.299Z,219.10
2023-05-10T03:30:48.315Z,219.12
2023-05-10T03:31:48.441Z,221.30
2023-05-10T03:32:48.373Z,223.37
2023-05-10T03:33:48.394Z,224.86
2023-05-10T03:34:48.423Z,225.50
2023-05-10T03:35:48.440Z,225.05
2023-05-10T03:36:48.451Z,224.20
2023-05-10T03:37:48.481Z,222.86
2023-05-10T03:38:48.487Z,223.60
2023-05-10T03:39:48.527Z,224.33
2023-05-10T03:40:48.564Z,223.93
2023-05-10T03:41:48.551Z,224.49
2023-05-10T03:42:48.580Z,222.06
2023-05-10T03:43:48.601Z,224.00
2023-05-10T03:44:48.630Z,224.69
2023-05-10T03:45:48.638Z,224.22
2023-05-10T03:46:48.696Z,225.75
2023-05-10T03:47:48.694Z,225.32
2023-05-10T03:48:48.719Z,224.81
2023-05-10T03:49:48.735Z,225.82
2023-05-10T03:50:48.761Z,224.53
2023-05-10T03:51:48.823Z,223.20
2023-05-10T03:52:48.782Z,222.57
2023-05-10T03:53:48.798Z,221.63
2023-05-10T03:54:48.837Z,224.43
2023-05-10T03:55:48.841Z,221.80
2023-05-10T03:56:48.884Z,222.22
2023-05-10T03:57:48.884Z,224.13
2023-05-10T03:58:48.908Z,224.80
2023-05-10T03:59:48.924Z,223.34
2023-05-10T04:00:48.928Z,221.14
2023-05-10T04:01:48.960Z,220.60
2023-05-10T04:02:49.036Z,221.74
2023-05-10T04:03:49.115Z,221.23
2023-05-10T04:04:49.016Z,221.91
2023-05-10T04:05:49.041Z,219.85
2023-05-10T04:06:49.086Z,219.38
2023-05-10T04:07:49.104Z,219.80
2023-05-10T04:08:49.121Z,221.56
2023-05-10T04:09:49.115Z,219.97
2023-05-10T04:10:49.162Z,220.75
2023-05-10T04:11:49.184Z,220.62
2023-05-10T04:12:49.237Z,219.44
2023-05-10T04:13:49.208Z,217.57
2023-05-10T04:14:49.221Z,218.15
2023-05-10T04:15:49.251Z,218.14
2023-05-10T04:16:49.307Z,216.29
2023-05-10T04:17:49.311Z,214.87
2023-05-10T04:18:49.332Z,213.91
2023-05-10T04:19:49.342Z,213.66
2023-05-10T04:20:49.365Z,211.94
2023-05-10T04:21:49.380Z,214.24
2023-05-10T04:22:49.411Z,216.90
2023-05-10T04:23:49.418Z,217.72
2023-05-10T04:24:49.423Z,217.34
2023-05-10T04:25:49.447Z,216.53
2023-05-10T04:26:49.463Z,217.31
2023-05-10T04:27:49.506Z,216.14
2023-05-10T04:28:49.523Z,216.27
2023-05-10T04:29:49.546Z,217.62
2023-05-10T04:30:49.614Z,215.08
2023-05-10T04:31:49.585Z,216.01
2023-05-10T04:32:49.631Z,215.92
2023-05-10T04:33:49.630Z,214.94
2023-05-10T04:34:49.625Z,213.55
2023-05-10T04:35:49.646Z,215.25
2023-05-10T04:36:49.670Z,214.72
2023-05-10T04:37:49.688Z,213.52
2023-05-10T04:38:49.707Z,213.64
2023-05-10T04:39:49.739Z,213.47
2023-05-10T04:40:49.768Z,216.47
2023-05-10T04:41:49.801Z,216.50
2023-05-10T04:42:49.819Z,213.91
2023-05-10T04:43:49.857Z,213.62
2023-05-10T04:44:49.855Z,212.82
2023-05-10T04:45:49.863Z,215.12
2023-05-10T04:46:49.940Z,215.84
2023-05-10T04:47:49.987Z,215.23
2023-05-10T04:48:49.939Z,216.50
2023-05-10T04:49:49.963Z,216.39
2023-05-10T04:50:49.977Z,216.75
2023-05-10T04:51:50.002Z,216.92
2023-05-10T04:52:50.034Z,219.51
2023-05-10T04:54:01.626Z,218.82
2023-05-10T04:54:51.039Z,218.92
2023-05-10T04:55:50.043Z,219.09
2023-05-10T04:56:50.040Z,220.17
2023-05-10T04:57:50.016Z,221.03
2023-05-10T04:58:50.014Z,222.17
2023-05-10T04:59:50.620Z,225.90
2023-05-10T05:00:50.013Z,223.68
2023-05-10T05:01:50.024Z,222.05
2023-05-10T05:02:49.989Z,223.37
2023-05-10T05:03:50.030Z,225.88
2023-05-10T05:04:49.984Z,223.25
2023-05-10T05:05:49.964Z,222.08
2023-05-10T05:07:49.943Z,222.95
2023-05-10T05:08:49.958Z,224.91
2023-05-10T05:09:49.934Z,227.90
2023-05-10T05:10:49.924Z,229.98
2023-05-10T05:11:49.917Z,232.33
2023-05-10T05:12:49.936Z,233.18
2023-05-10T05:13:49.958Z,238.31
2023-05-10T05:14:49.976Z,240.97
2023-05-10T05:15:50.017Z,241.45
2023-05-10T05:16:49.988Z,241.48
2023-05-10T05:17:50.054Z,247.11
2023-05-10T05:18:50.074Z,248.29
2023-05-10T05:19:50.060Z,249.69
2023-05-10T05:20:50.091Z,249.27
2023-05-10T05:21:50.107Z,247.13
2023-05-10T05:22:50.121Z,247.14
2023-05-10T05:23:50.165Z,245.71
2023-05-10T05:24:50.171Z,246.07
2023-05-10T05:25:50.204Z,244.32
2023-05-10T05:26:50.192Z,246.83
2023-05-10T05:27:50.228Z,249.00
2023-05-10T05:28:50.213Z,300.52
2023-05-10T05:29:50.264Z,292.52
2023-05-10T05:30:50.229Z,284.04
2023-05-10T05:31:50.262Z,267.82
2023-05-10T05:32:50.347Z,256.16
2023-05-10T05:33:50.833Z,246.65
2023-05-10T05:34:50.249Z,245.25
2023-05-10T05:35:50.267Z,245.81
2023-05-10T05:36:50.276Z,247.18
2023-05-10T05:37:50.285Z,247.24
2023-05-10T05:38:50.303Z,245.64
2023-05-10T05:39:50.363Z,245.15
2023-05-10T05:40:50.383Z,246.66
2023-05-10T05:41:50.394Z,249.13
2023-05-10T05:42:50.381Z,250.00
2023-05-10T05:43:50.404Z,250.00
2023-05-10T05:44:50.400Z,241.61
2023-05-10T05:45:50.456Z,230.66
2023-05-10T05:46:50.412Z,227.45
2023-05-10T05:47:50.421Z,227.01
2023-05-10T05:48:50.443Z,227.52
2023-05-10T05:49:50.850Z,232.41
2023-05-10T05:50:50.433Z,205.51
2023-05-10T05:51:50.476Z,193.12
2023-05-10T05:52:50.541Z,200.29
2023-05-10T05:53:50.588Z,204.97
2023-05-10T05:54:50.677Z,209.33
2023-05-10T05:55:50.651Z,213.21
2023-05-10T05:56:50.677Z,216.78
2023-05-10T05:57:50.691Z,214.44
2023-05-10T05:58:50.695Z,213.43
2023-05-10T05:59:50.754Z,217.86
2023-05-10T06:00:50.840Z,225.39
2023-05-10T06:01:50.858Z,231.26
2023-05-10T06:02:50.940Z,237.62
2023-05-10T06:03:53.186Z,243.74
2023-05-10T06:04:51.068Z,248.49
2023-05-10T06:05:51.099Z,249.98
2023-05-10T06:06:51.093Z,249.85
2023-05-10T06:07:51.095Z,250.00
2023-05-10T06:08:51.123Z,249.77
2023-05-10T06:09:51.157Z,250.00
2023-05-10T06:10:51.136Z,250.00
2023-05-10T06:11:51.168Z,249.76
2023-05-10T06:12:51.305Z,250.00
2023-05-10T06:13:51.279Z,249.52
2023-05-10T06:14:51.354Z,249.43
2023-05-10T06:15:51.371Z,249.53
2023-05-10T06:16:51.523Z,250.00
2023-05-10T06:17:51.536Z,249.69
2023-05-10T06:18:51.561Z,248.86
2023-05-10T06:19:51.869Z,250.00
2023-05-10T06:20:51.685Z,250.00
2023-05-10T06:21:53.727Z,249.88
2023-05-10T06:22:51.772Z,250.00
2023-05-10T06:23:51.991Z,249.84
2023-05-10T06:24:51.897Z,249.56
2023-05-10T06:25:51.933Z,248.92
2023-05-10T06:26:52.002Z,247.74
2023-05-10T06:27:53.873Z,240.01
2023-05-10T06:28:52.084Z,233.41
2023-05-10T06:29:56.460Z,222.64
2023-05-10T06:30:53.147Z,221.67
2023-05-10T06:31:52.245Z,216.23
2023-05-10T06:32:52.122Z,216.73
2023-05-10T06:33:52.939Z,219.58
2023-05-10T06:34:52.392Z,221.72
2023-05-10T06:35:52.117Z,226.09
2023-05-10T06:36:52.475Z,230.44
2023-05-10T06:37:52.245Z,234.12
2023-05-10T06:38:52.293Z,237.51
2023-05-10T06:39:52.361Z,239.97
2023-05-10T06:40:52.409Z,240.91
2023-05-10T06:41:52.445Z,243.06
2023-05-10T06:42:52.483Z,243.79
2023-05-10T06:43:52.532Z,243.73
2023-05-10T06:44:52.599Z,243.59
2023-05-10T06:45:52.712Z,241.36
2023-05-10T06:46:52.666Z,242.45
2023-05-10T06:47:52.775Z,242.75
2023-05-10T06:48:52.752Z,241.35
2023-05-10T06:49:52.785Z,239.67
2023-05-10T06:50:52.835Z,239.37
2023-05-10T06:51:52.870Z,240.51
2023-05-10T06:52:53.254Z,241.26
2023-05-10T06:53:53.016Z,241.47
2023-05-10T06:54:52.961Z,242.07
2023-05-10T06:55:52.996Z,243.10
2023-05-10T06:56:53.038Z,243.62
2023-05-10T06:57:53.049Z,244.74
2023-05-10T06:58:53.108Z,246.12
2023-05-10T06:59:53.110Z,246.22
2023-05-10T07:00:53.165Z,247.20
2023-05-10T07:01:53.198Z,249.00
2023-05-10T07:02:53.202Z,249.26
2023-05-10T07:03:53.226Z,250.00
2023-05-10T07:04:53.280Z,249.55
2023-05-10T07:05:53.246Z,250.00
2023-05-10T07:06:53.254Z,250.00
2023-05-10T07:07:53.267Z,249.66
2023-05-10T07:08:53.297Z,249.39
2023-05-10T07:09:53.310Z,250.00
2023-05-10T07:10:53.302Z,249.67
2023-05-10T07:11:53.878Z,249.42
2023-05-10T07:12:53.548Z,249.83
2023-05-10T07:13:53.339Z,249.95
2023-05-10T07:14:53.363Z,250.00
2023-05-10T07:15:53.411Z,249.87
2023-05-10T07:16:53.384Z,249.67
2023-05-10T07:17:53.575Z,249.12
2023-05-10T07:18:53.390Z,245.34
2023-05-10T07:19:53.393Z,245.52
2023-05-10T07:20:53.490Z,243.09
2023-05-10T07:21:53.405Z,242.12
2023-05-10T07:22:53.422Z,243.10
2023-05-10T07:23:53.430Z,243.96
2023-05-10T07:24:53.428Z,243.16
2023-05-10T07:25:53.421Z,242.58
2023-05-10T07:26:53.892Z,234.60
2023-05-10T07:27:53.432Z,236.09
2023-05-10T07:28:53.437Z,215.11
2023-05-10T07:29:53.472Z,196.36
2023-05-10T07:30:53.512Z,181.63
2023-05-10T07:31:55.292Z,177.50
2023-05-10T07:32:53.577Z,178.90
2023-05-10T07:33:53.518Z,182.31
2023-05-10T07:34:53.485Z,187.19
2023-05-10T07:35:53.498Z,190.05
2023-05-10T07:36:53.498Z,188.71
2023-05-10T07:37:53.482Z,194.12
2023-05-10T07:38:53.461Z,189.45
2023-05-10T07:39:53.451Z,199.58
2023-05-10T07:40:53.464Z,206.66
2023-05-10T07:41:53.449Z,210.97
2023-05-10T07:42:53.459Z,214.33
2023-05-10T07:43:53.453Z,217.09
2023-05-10T07:44:53.439Z,219.40
2023-05-10T07:45:56.129Z,220.58
2023-05-10T07:46:53.441Z,220.63
2023-05-10T07:47:53.468Z,221.00
2023-05-10T07:48:53.416Z,221.97
2023-05-10T07:49:53.884Z,224.48
2023-05-10T07:50:53.377Z,224.34
2023-05-10T07:51:53.394Z,226.44
2023-05-10T07:52:53.380Z,224.11
2023-05-10T07:53:53.359Z,225.41
2023-05-10T07:54:53.402Z,224.34
2023-05-10T07:55:53.368Z,225.18
2023-05-10T07:56:53.401Z,226.77
2023-05-10T07:57:53.361Z,226.19
2023-05-10T07:58:53.326Z,226.99
2023-05-10T07:59:53.414Z,230.27
2023-05-10T08:00:53.325Z,232.38
2023-05-10T08:01:53.361Z,233.99
2023-05-10T08:02:53.398Z,232.09
2023-05-10T08:03:53.372Z,232.15
2023-05-10T08:04:53.309Z,234.25
2023-05-10T08:05:53.271Z,234.48
2023-05-10T08:06:53.290Z,235.34
2023-05-10T08:07:53.274Z,236.48
2023-05-10T08:08:53.269Z,238.25
2023-05-10T08:09:53.243Z,240.12
2023-05-10T08:10:53.252Z,237.28
2023-05-10T08:11:53.234Z,238.46
2023-05-10T08:12:53.244Z,239.09
2023-05-10T08:13:53.209Z,242.33
2023-05-10T08:14:53.396Z,244.94
2023-05-10T08:15:53.253Z,245.88
2023-05-10T08:16:53.210Z,246.50
2023-05-10T08:17:53.232Z,246.80
2023-05-10T08:18:53.263Z,245.91
2023-05-10T08:19:53.424Z,246.09
2023-05-10T08:20:53.178Z,230.24
2023-05-10T08:21:53.165Z,209.86
2023-05-10T08:22:53.167Z,197.90
2023-05-10T08:23:53.148Z,188.64
2023-05-10T08:24:53.432Z,180.60
2023-05-10T08:25:53.140Z,174.27
2023-05-10T08:26:53.147Z,165.92
2023-05-10T08:27:53.135Z,164.82
2023-05-10T08:28:53.114Z,160.57
2023-05-10T08:29:53.125Z,155.15
2023-05-10T08:30:53.303Z,151.17
2023-05-10T08:31:53.121Z,156.13
2023-05-10T08:32:53.115Z,155.69
2023-05-10T08:33:53.085Z,157.16
2023-05-10T08:34:53.072Z,147.98
2023-05-10T08:35:53.070Z,148.04
2023-05-10T08:36:53.059Z,164.89
2023-05-10T08:37:53.045Z,174.93
2023-05-10T08:38:53.048Z,180.72
2023-05-10T08:39:53.406Z,187.51
2023-05-10T08:40:53.032Z,193.04
2023-05-10T08:41:53.028Z,197.63
2023-05-10T08:42:53.010Z,200.30
2023-05-10T08:43:53.004Z,202.28
2023-05-10T08:44:53.426Z,201.55
2023-05-10T08:45:53.001Z,202.49
2023-05-10T08:46:53.040Z,205.65
2023-05-10T08:47:52.998Z,205.58
2023-05-10T08:48:52.976Z,206.60
2023-05-10T08:49:53.009Z,206.43
2023-05-10T08:50:52.962Z,208.35
2023-05-10T08:51:52.988Z,209.02
2023-05-10T08:52:52.974Z,210.28
2023-05-10T08:53:52.927Z,212.94
2023-05-10T08:54:53.114Z,214.46
2023-05-10T08:55:53.016Z,213.75
2023-05-10T08:56:53.088Z,212.84
2023-05-10T08:57:53.160Z,214.39
2023-05-10T08:58:53.205Z,216.27
2023-05-10T08:59:53.273Z,215.56
2023-05-10T09:00:53.335Z,216.71
2023-05-10T09:01:53.337Z,215.19
2023-05-10T09:02:53.405Z,212.57
2023-05-10T09:03:53.481Z,213.70
2023-05-10T09:04:53.727Z,212.89
2023-05-10T09:05:53.993Z,213.36
2023-05-10T09:06:53.601Z,213.01
2023-05-10T09:07:53.631Z,213.95
2023-05-10T09:08:53.689Z,211.40
2023-05-10T09:09:53.739Z,213.32
2023-05-10T09:10:53.933Z,213.58
2023-05-10T09:11:53.814Z,211.21
2023-05-10T09:12:53.862Z,209.26
2023-05-10T09:13:53.923Z,209.40
2023-05-10T09:14:53.966Z,211.57
2023-05-10T09:15:54.440Z,210.04
2023-05-10T09:16:54.095Z,210.27
2023-05-10T09:17:54.139Z,209.47
2023-05-10T09:18:54.143Z,207.70
2023-05-10T09:19:54.188Z,206.27
2023-05-10T09:20:54.441Z,209.39
2023-05-10T09:21:54.342Z,207.76
2023-05-10T09:22:54.334Z,205.38
2023-05-10T09:23:54.364Z,206.90
2023-05-10T09:24:54.410Z,205.42
2023-05-10T09:25:54.938Z,204.69
2023-05-10T09:26:54.494Z,205.49
2023-05-10T09:27:54.534Z,205.42
2023-05-10T09:28:54.575Z,206.16
2023-05-10T09:29:54.602Z,206.65
2023-05-10T09:30:54.731Z,207.16
2023-05-10T09:31:54.707Z,205.47
2023-05-10T09:32:54.798Z,201.74
2023-05-10T09:33:54.789Z,181.32
2023-05-10T09:34:54.828Z,154.24
2023-05-10T09:35:54.947Z,135.54
2023-05-10T09:36:54.937Z,122.35
2023-05-10T09:37:54.946Z,110.51
2023-05-10T09:38:54.927Z,99.93
2023-05-10T09:39:54.938Z,93.83
2023-05-10T09:40:55.475Z,90.78
2023-05-10T09:41:54.986Z,91.91
2023-05-10T09:42:54.992Z,91.01
2023-05-10T09:43:54.999Z,88.64
2023-05-10T09:44:55.012Z,88.16
2023-05-10T09:45:55.475Z,95.08
2023-05-10T09:46:55.074Z,103.34
2023-05-10T09:47:55.129Z,108.48
2023-05-10T09:48:55.115Z,115.08
2023-05-10T09:49:55.130Z,120.08
2023-05-10T09:50:55.151Z,125.09
2023-05-10T09:51:55.180Z,131.55
2023-05-10T09:52:55.167Z,136.87
2023-05-10T09:53:55.178Z,147.34
2023-05-10T09:54:55.182Z,151.63
2023-05-10T09:55:55.252Z,159.88
2023-05-10T09:56:55.266Z,166.64
2023-05-10T09:57:55.346Z,172.78
2023-05-10T09:58:55.398Z,177.48
2023-05-10T09:59:55.453Z,181.27
2023-05-10T10:00:55.478Z,183.21
2023-05-10T10:01:55.607Z,186.00
2023-05-10T10:02:55.661Z,187.58
2023-05-10T10:03:55.627Z,188.67
2023-05-10T10:04:55.690Z,190.57
2023-05-10T10:05:55.690Z,193.04
2023-05-10T10:06:55.699Z,194.43
2023-05-10T10:07:55.721Z,193.69
2023-05-10T10:08:56.863Z,195.98
2023-05-10T10:09:55.799Z,197.95
2023-05-10T10:10:55.795Z,199.13
2023-05-10T10:11:55.825Z,199.68
2023-05-10T10:12:55.843Z,201.30
2023-05-10T10:13:55.867Z,202.17
2023-05-10T10:14:55.858Z,203.78
2023-05-10T10:15:55.984Z,203.85
2023-05-10T10:17:07.376Z,202.68
2023-05-10T10:17:56.979Z,202.74
2023-05-10T10:18:55.955Z,201.98
2023-05-10T10:19:55.887Z,201.27
2023-05-10T10:20:55.865Z,199.54
2023-05-10T10:21:55.853Z,189.88
2023-05-10T10:22:55.883Z,187.26
2023-05-10T10:23:55.846Z,191.80
2023-05-10T10:24:55.840Z,197.11
2023-05-10T10:25:55.955Z,200.00
2023-05-10T10:26:55.837Z,206.82
2023-05-10T10:27:55.835Z,210.42
2023-05-10T10:28:55.811Z,215.57
2023-05-10T10:29:55.813Z,218.36
2023-05-10T10:30:55.825Z,221.95
2023-05-10T10:31:55.905Z,222.84
2023-05-10T10:32:55.854Z,225.14
2023-05-10T10:33:55.794Z,225.01
2023-05-10T10:34:55.790Z,223.07
2023-05-10T10:35:55.993Z,225.55
2023-05-10T10:36:55.769Z,227.27
2023-05-10T10:37:55.778Z,226.12
2023-05-10T10:38:55.757Z,226.08
2023-05-10T10:39:55.774Z,227.55
2023-05-10T10:40:55.753Z,227.02
2023-05-10T10:41:55.862Z,219.69
2023-05-10T10:42:55.763Z,227.23
2023-05-10T10:43:55.720Z,230.59
2023-05-10T10:44:55.700Z,230.87
2023-05-10T10:45:55.720Z,237.02
2023-05-10T10:46:55.729Z,241.12
2023-05-10T10:47:55.751Z,245.41
2023-05-10T10:48:55.700Z,249.13
2023-05-10T10:49:55.681Z,248.23
2023-05-10T10:50:55.705Z,249.08
2023-05-10T10:51:55.677Z,247.08
2023-05-10T10:52:55.673Z,246.28
2023-05-10T10:53:55.657Z,244.37
2023-05-10T10:54:55.632Z,243.81
2023-05-10T10:55:55.639Z,242.74
2023-05-10T10:56:55.620Z,241.13
2023-05-10T10:57:55.627Z,238.23
2023-05-10T10:58:55.656Z,238.55
2023-05-10T10:59:55.710Z,239.30
2023-05-10T11:00:55.734Z,238.07
2023-05-10T11:01:55.767Z,232.81
2023-05-10T11:02:55.810Z,232.62
2023-05-10T11:03:55.889Z,231.23
2023-05-10T11:04:55.862Z,230.85
2023-05-10T11:05:55.886Z,229.17
2023-05-10T11:06:55.924Z,229.48
2023-05-10T11:07:55.988Z,231.44
2023-05-10T11:08:56.007Z,232.57
2023-05-10T11:09:56.067Z,231.69
2023-05-10T11:10:56.117Z,221.36
2023-05-10T11:11:56.400Z,216.88
2023-05-10T11:12:56.184Z,220.01
2023-05-10T11:13:56.319Z,218.70
2023-05-10T11:14:56.257Z,214.69
2023-05-10T11:15:56.296Z,202.11
2023-05-10T11:16:56.384Z,193.08
2023-05-10T11:17:56.406Z,186.50
2023-05-10T11:18:56.432Z,181.19
2023-05-10T11:19:56.333Z,166.12
2023-05-10T11:20:56.332Z,155.69
2023-05-10T11:21:56.337Z,159.18
2023-05-10T11:22:56.333Z,152.56
2023-05-10T11:23:56.352Z,149.14
2023-05-10T11:24:56.356Z,143.94
2023-05-10T11:25:56.412Z,140.21
2023-05-10T11:26:56.399Z,141.98
2023-05-10T11:27:56.438Z,137.04
2023-05-10T11:28:56.449Z,131.46
2023-05-10T11:29:56.476Z,130.52
2023-05-10T11:30:56.536Z,125.33
2023-05-10T11:31:56.527Z,122.48
2023-05-10T11:32:56.573Z,122.71
2023-05-10T11:33:56.601Z,119.65
2023-05-10T11:34:56.626Z,116.48
2023-05-10T11:35:56.663Z,115.79
2023-05-10T11:36:56.721Z,116.21
2023-05-10T11:37:56.755Z,118.31
2023-05-10T11:38:56.808Z,119.26
2023-05-10T11:39:56.828Z,118.45
2023-05-10T11:40:56.906Z,118.87
2023-05-10T11:41:56.926Z,119.89
2023-05-10T11:42:56.949Z,124.24
2023-05-10T11:43:56.982Z,123.52
2023-05-10T11:44:57.014Z,125.90
2023-05-10T11:45:57.109Z,127.84
2023-05-10T11:46:57.106Z,131.19
2023-05-10T11:47:57.181Z,132.72
2023-05-10T11:48:57.195Z,131.64
2023-05-10T11:49:57.216Z,135.38
2023-05-10T11:50:57.278Z,137.00
2023-05-10T11:51:57.368Z,138.01
2023-05-10T11:52:57.350Z,142.95
2023-05-10T11:53:57.391Z,141.95
2023-05-10T11:54:57.425Z,141.74
2023-05-10T11:55:57.444Z,142.35
2023-05-10T11:56:57.491Z,143.23
2023-05-10T11:57:57.538Z,144.60
2023-05-10T11:58:57.597Z,147.14
2023-05-10T11:59:57.612Z,145.72
2023-05-10T12:00:57.669Z,148.05
2023-05-10T12:01:57.684Z,149.78
2023-05-10T12:02:57.795Z,150.22
2023-05-10T12:03:57.960Z,151.27
2023-05-10T12:04:57.847Z,148.56
2023-05-10T12:05:57.994Z,145.48
2023-05-10T12:06:58.007Z,144.45
2023-05-10T12:07:57.963Z,146.30
2023-05-10T12:08:57.990Z,144.36
2023-05-10T12:09:58.053Z,142.87
2023-05-10T12:10:58.530Z,139.73
2023-05-10T12:11:58.498Z,140.07
2023-05-10T12:12:58.193Z,137.78
2023-05-10T12:13:58.244Z,138.21
2023-05-10T12:14:58.286Z,136.90
2023-05-10T12:15:58.331Z,134.81
2023-05-10T12:16:58.525Z,135.04
2023-05-10T12:17:58.479Z,132.69
2023-05-10T12:18:58.574Z,135.10
2023-05-10T12:19:58.513Z,131.95
2023-05-10T12:20:58.540Z,133.70
2023-05-10T12:21:58.592Z,133.81
2023-05-10T12:23:00.604Z,137.23
2023-05-10T12:23:58.710Z,132.30
2023-05-10T12:24:58.737Z,133.57
2023-05-10T12:25:58.787Z,134.82
2023-05-10T12:26:58.850Z,134.72
2023-05-10T12:27:58.917Z,134.39
2023-05-10T12:28:58.932Z,135.63
2023-05-10T12:29:58.977Z,134.03